createdAt,value
2022-10-28T00:00:54.556Z,45.60
2022-10-28T00:01:54.618Z,48.98
2022-10-28T00:02:56.176Z,49.31
2022-10-28T00:03:54.546Z,48.34
2022-10-28T00:04:54.547Z,47.21
2022-10-28T00:05:54.530Z,45.44
2022-10-28T00:06:54.535Z,48.34
2022-10-28T00:07:54.839Z,48.18
2022-10-28T00:08:54.502Z,48.18
2022-10-28T00:09:54.506Z,47.70
2022-10-28T00:10:54.501Z,48.50
2022-10-28T00:11:54.479Z,46.89
2022-10-28T00:12:54.468Z,49.79
2022-10-28T00:13:54.460Z,50.43
2022-10-28T00:14:54.486Z,47.21
2022-10-28T00:15:54.440Z,51.40
2022-10-28T00:16:54.440Z,51.72
2022-10-28T00:17:54.591Z,45.76
2022-10-28T00:18:54.494Z,48.98
2022-10-28T00:19:54.425Z,46.25
2022-10-28T00:20:54.415Z,50.11
2022-10-28T00:21:54.402Z,55.43
2022-10-28T00:22:54.393Z,48.98
2022-10-28T00:23:54.416Z,44.15
2022-10-28T00:24:54.376Z,45.28
2022-10-28T00:25:54.378Z,48.82
2022-10-28T00:26:54.365Z,46.57
2022-10-28T00:27:54.685Z,52.21
2022-10-28T00:30:44.126Z,48.18
2022-10-28T00:31:44.116Z,45.44
2022-10-28T00:32:45.219Z,45.12
2022-10-28T00:33:45.199Z,45.12
2022-10-28T00:34:45.191Z,53.66
2022-10-28T00:35:46.060Z,56.07
2022-10-28T00:36:45.201Z,49.31
2022-10-28T00:37:45.172Z,45.28
2022-10-28T00:38:45.173Z,48.66
2022-10-28T00:39:45.153Z,45.44
2022-10-28T00:40:45.137Z,45.12
2022-10-28T00:41:45.143Z,48.66
2022-10-28T00:42:45.109Z,54.95
2022-10-28T00:43:46.124Z,53.01
2022-10-28T00:44:45.113Z,52.85
2022-10-28T00:45:45.095Z,57.04
2022-10-28T00:46:45.093Z,52.05
2022-10-28T00:47:45.075Z,49.47
2022-10-28T00:48:45.069Z,54.95
2022-10-28T00:49:45.059Z,46.08
2022-10-28T00:50:45.050Z,44.15
2022-10-28T00:51:45.044Z,45.28
2022-10-28T00:52:45.049Z,48.50
2022-10-28T00:53:45.031Z,53.01
2022-10-28T00:54:45.023Z,51.24
2022-10-28T00:55:45.018Z,50.27
2022-10-28T00:56:45.018Z,49.31
2022-10-28T00:57:45.009Z,52.05
2022-10-28T00:58:45.001Z,47.53
2022-10-28T00:59:44.981Z,48.66
2022-10-28T01:00:44.974Z,55.91
2022-10-28T01:01:45.131Z,51.72
2022-10-28T01:02:45.010Z,48.34
2022-10-28T01:03:44.964Z,51.40
2022-10-28T01:04:45.581Z,45.92
2022-10-28T01:05:44.937Z,44.15
2022-10-28T01:06:44.944Z,53.50
2022-10-28T01:07:44.930Z,48.18
2022-10-28T01:08:44.913Z,48.02
2022-10-28T01:09:45.090Z,49.15
2022-10-28T01:10:45.959Z,48.34
2022-10-28T01:11:44.890Z,48.34
2022-10-28T01:12:44.912Z,46.41
2022-10-28T01:13:44.886Z,48.66
2022-10-28T01:14:44.874Z,51.72
2022-10-28T01:15:44.863Z,46.25
2022-10-28T01:16:44.865Z,44.47
2022-10-28T01:17:44.840Z,44.63
2022-10-28T01:18:44.847Z,46.08
2022-10-28T01:19:44.831Z,49.79
2022-10-28T01:20:45.331Z,47.53
2022-10-28T01:21:44.821Z,47.53
2022-10-28T01:22:44.815Z,53.66
2022-10-28T01:23:44.804Z,53.01
2022-10-28T01:24:44.786Z,49.79
2022-10-28T01:25:44.781Z,49.79
2022-10-28T01:26:44.758Z,47.86
2022-10-28T01:27:44.748Z,44.15
2022-10-28T01:28:44.752Z,45.44
2022-10-28T01:29:44.740Z,45.92
2022-10-28T01:30:44.747Z,49.79
2022-10-28T01:31:44.726Z,47.86
2022-10-28T01:32:44.716Z,45.12
2022-10-28T01:33:44.715Z,45.60
2022-10-28T01:34:44.695Z,48.02
2022-10-28T01:35:44.702Z,47.05
2022-10-28T01:36:44.687Z,51.08
2022-10-28T01:37:44.680Z,56.72
2022-10-28T01:38:44.667Z,47.21
2022-10-28T01:39:44.664Z,48.50
2022-10-28T01:40:44.672Z,46.08
2022-10-28T01:41:44.643Z,47.05
2022-10-28T01:42:44.636Z,48.34
2022-10-28T01:43:44.635Z,46.25
2022-10-28T01:44:44.634Z,46.73
2022-10-28T01:45:44.625Z,50.76
2022-10-28T01:46:44.637Z,48.02
2022-10-28T01:47:44.610Z,50.43
2022-10-28T01:48:44.595Z,49.47
2022-10-28T01:49:44.596Z,48.66
2022-10-28T01:50:44.573Z,45.60
2022-10-28T01:51:44.561Z,46.89
2022-10-28T01:52:44.575Z,48.82
2022-10-28T01:53:44.585Z,48.34
2022-10-28T01:54:44.549Z,56.40
2022-10-28T01:55:44.531Z,52.85
2022-10-28T01:56:44.523Z,48.50
2022-10-28T01:57:44.537Z,50.92
2022-10-28T01:58:44.547Z,50.92
2022-10-28T01:59:44.494Z,54.46
2022-10-28T02:00:44.560Z,47.53
2022-10-28T02:01:44.657Z,47.05
2022-10-28T02:02:45.014Z,44.47
2022-10-28T02:03:44.482Z,49.15
2022-10-28T02:04:44.467Z,49.63
2022-10-28T02:05:44.454Z,45.12
2022-10-28T02:06:44.449Z,47.21
2022-10-28T02:07:44.438Z,45.28
2022-10-28T02:08:44.437Z,46.73
2022-10-28T02:09:44.435Z,47.05
2022-10-28T02:10:44.413Z,45.28
2022-10-28T02:11:44.406Z,45.60
2022-10-28T02:12:44.396Z,46.08
2022-10-28T02:13:44.386Z,44.63
2022-10-28T02:14:44.382Z,42.86
2022-10-28T02:15:44.365Z,42.86
2022-10-28T02:16:44.377Z,44.63
2022-10-28T02:17:44.355Z,43.67
2022-10-28T02:18:44.337Z,46.08
2022-10-28T02:19:44.333Z,43.34
2022-10-28T02:20:44.361Z,44.15
2022-10-28T02:21:44.313Z,46.08
2022-10-28T02:22:44.328Z,50.11
2022-10-28T02:23:44.318Z,46.25
2022-10-28T02:24:44.293Z,54.95
2022-10-28T02:25:44.284Z,50.11
2022-10-28T02:26:45.094Z,47.70
2022-10-28T02:27:44.279Z,47.86
2022-10-28T02:28:44.268Z,49.63
2022-10-28T02:29:44.255Z,48.18
2022-10-28T02:30:44.243Z,50.27
2022-10-28T02:31:44.260Z,53.66
2022-10-28T02:32:44.242Z,43.18
2022-10-28T02:33:44.244Z,41.73
2022-10-28T02:34:44.228Z,42.06
2022-10-28T02:35:44.207Z,40.28
2022-10-28T02:36:44.210Z,45.60
2022-10-28T02:37:44.193Z,45.28
2022-10-28T02:38:44.230Z,46.57
2022-10-28T02:39:44.179Z,48.34
2022-10-28T02:40:44.221Z,54.95
2022-10-28T02:41:44.154Z,49.15
2022-10-28T02:42:45.006Z,52.69
2022-10-28T02:43:44.179Z,46.73
2022-10-28T02:44:44.130Z,45.60
2022-10-28T02:45:44.126Z,46.25
2022-10-28T02:46:44.115Z,49.31
2022-10-28T02:47:44.111Z,50.11
2022-10-28T02:48:44.110Z,48.98
2022-10-28T02:49:44.101Z,47.37
2022-10-28T02:50:44.088Z,53.98
2022-10-28T02:51:44.074Z,49.15
2022-10-28T02:52:44.069Z,55.43
2022-10-28T02:53:44.085Z,53.82
2022-10-28T02:54:44.074Z,52.21
2022-10-28T02:55:44.057Z,55.43
2022-10-28T02:56:44.035Z,48.82
2022-10-28T02:57:44.025Z,53.66
2022-10-28T02:58:44.031Z,51.88
2022-10-28T02:59:44.005Z,53.50
2022-10-28T03:00:45.034Z,55.59
2022-10-28T03:01:44.068Z,53.01
2022-10-28T03:02:43.991Z,49.79
2022-10-28T03:03:43.982Z,50.27
2022-10-28T03:04:44.046Z,49.63
2022-10-28T03:05:43.981Z,52.37
2022-10-28T03:06:43.967Z,52.21
2022-10-28T03:07:43.951Z,52.53
2022-10-28T03:08:43.947Z,51.72
2022-10-28T03:09:43.942Z,57.04
2022-10-28T03:10:43.945Z,58.01
2022-10-28T03:11:43.911Z,55.59
2022-10-28T03:12:43.911Z,57.85
2022-10-28T03:13:43.921Z,51.08
2022-10-28T03:14:43.897Z,54.46
2022-10-28T03:15:43.891Z,57.04
2022-10-28T03:16:43.876Z,54.30
2022-10-28T03:17:43.870Z,53.98
2022-10-28T03:18:43.884Z,60.10
2022-10-28T03:19:43.861Z,52.85
2022-10-28T03:20:43.856Z,54.30
2022-10-28T03:21:43.841Z,60.75
2022-10-28T03:22:43.833Z,61.71
2022-10-28T03:23:43.820Z,54.62
2022-10-28T03:24:43.809Z,53.66
2022-10-28T03:25:43.811Z,56.40
2022-10-28T03:26:43.796Z,55.59
2022-10-28T03:27:44.545Z,49.47
2022-10-28T03:28:43.802Z,51.56
2022-10-28T03:29:45.916Z,49.47
2022-10-28T03:30:43.775Z,56.07
2022-10-28T03:31:43.746Z,57.69
2022-10-28T03:32:43.785Z,59.62
2022-10-28T03:33:43.734Z,60.91
2022-10-28T03:34:43.734Z,57.69
2022-10-28T03:35:43.724Z,57.20
2022-10-28T03:36:43.718Z,56.56
2022-10-28T03:37:43.701Z,62.36
2022-10-28T03:38:43.687Z,53.82
2022-10-28T03:39:43.703Z,57.52
2022-10-28T03:40:43.675Z,59.30
2022-10-28T03:41:43.669Z,58.65
2022-10-28T03:42:43.655Z,60.91
2022-10-28T03:43:43.656Z,57.20
2022-10-28T03:44:43.689Z,56.72
2022-10-28T03:45:44.600Z,53.66
2022-10-28T03:46:43.649Z,53.17
2022-10-28T03:47:43.615Z,53.98
2022-10-28T03:48:43.609Z,58.49
2022-10-28T03:49:43.622Z,58.33
2022-10-28T03:50:43.603Z,54.62
2022-10-28T03:51:43.589Z,55.27
2022-10-28T03:52:43.576Z,60.59
2022-10-28T03:53:43.583Z,53.33
2022-10-28T03:54:43.554Z,58.65
2022-10-28T03:55:43.558Z,53.01
2022-10-28T03:56:43.576Z,56.07
2022-10-28T03:57:43.548Z,58.97
2022-10-28T03:58:43.583Z,57.69
2022-10-28T03:59:43.511Z,61.23
2022-10-28T04:00:43.517Z,61.87
2022-10-28T04:01:43.637Z,64.29
2022-10-28T04:02:43.533Z,63.65
2022-10-28T04:03:43.508Z,62.20
2022-10-28T04:04:43.482Z,60.75
2022-10-28T04:05:43.472Z,57.69
2022-10-28T04:06:43.481Z,60.59
2022-10-28T04:07:43.450Z,61.87
2022-10-28T04:08:43.452Z,57.52
2022-10-28T04:09:43.437Z,59.30
2022-10-28T04:10:47.105Z,56.72
2022-10-28T04:11:44.440Z,57.52
2022-10-28T04:12:43.419Z,58.49
2022-10-28T04:13:43.447Z,56.24
2022-10-28T04:14:43.401Z,56.72
2022-10-28T04:15:43.389Z,57.04
2022-10-28T04:16:43.411Z,56.40
2022-10-28T04:17:43.385Z,58.17
2022-10-28T04:18:43.373Z,59.14
2022-10-28T04:19:43.360Z,59.94
2022-10-28T04:20:44.115Z,58.17
2022-10-28T04:21:43.338Z,61.07
2022-10-28T04:22:43.339Z,60.42
2022-10-28T04:23:43.316Z,58.97
2022-10-28T04:24:44.117Z,59.30
2022-10-28T04:25:43.305Z,60.10
2022-10-28T04:26:43.314Z,63.49
2022-10-28T04:27:43.294Z,60.91
2022-10-28T04:28:43.295Z,60.59
2022-10-28T04:29:43.302Z,61.55
2022-10-28T04:30:43.292Z,61.23
2022-10-28T04:31:43.279Z,57.69
2022-10-28T04:32:43.264Z,57.69
2022-10-28T04:33:43.242Z,57.52
2022-10-28T04:34:43.252Z,58.33
2022-10-28T04:35:43.238Z,61.71
2022-10-28T04:36:43.225Z,62.04
2022-10-28T04:37:43.218Z,61.07
2022-10-28T04:38:43.208Z,59.46
2022-10-28T04:39:43.204Z,59.78
2022-10-28T04:40:43.212Z,58.81
2022-10-28T04:41:43.175Z,59.78
2022-10-28T04:42:43.171Z,57.36
2022-10-28T04:43:43.163Z,59.62
2022-10-28T04:44:43.162Z,56.88
2022-10-28T04:45:43.147Z,59.94
2022-10-28T04:46:43.147Z,57.52
2022-10-28T04:47:43.126Z,56.24
2022-10-28T04:48:43.126Z,58.49
2022-10-28T04:49:43.112Z,58.33
2022-10-28T04:50:43.114Z,60.42
2022-10-28T04:51:43.121Z,58.01
2022-10-28T04:52:43.089Z,60.26
2022-10-28T04:53:43.085Z,58.65
2022-10-28T04:54:43.070Z,62.20
2022-10-28T04:55:43.061Z,61.87
2022-10-28T04:56:43.051Z,58.33
2022-10-28T04:57:43.062Z,56.40
2022-10-28T04:58:43.040Z,57.85
2022-10-28T04:59:43.048Z,59.94
2022-10-28T05:00:43.034Z,62.84
2022-10-28T05:01:43.082Z,59.62
2022-10-28T05:02:46.023Z,61.23
2022-10-28T05:03:44.017Z,61.87
2022-10-28T05:04:43.006Z,61.39
2022-10-28T05:05:43.006Z,58.01
2022-10-28T05:06:42.970Z,61.07
2022-10-28T05:07:42.978Z,61.23
2022-10-28T05:08:42.960Z,60.10
2022-10-28T05:09:42.949Z,57.52
2022-10-28T05:10:42.967Z,57.36
2022-10-28T05:11:42.937Z,59.62
2022-10-28T05:12:42.940Z,64.45
2022-10-28T05:13:42.946Z,59.14
2022-10-28T05:14:42.919Z,58.81
2022-10-28T05:15:42.896Z,59.30
2022-10-28T05:16:42.893Z,58.81
2022-10-28T05:17:42.886Z,55.43
2022-10-28T05:19:42.865Z,61.39
2022-10-28T05:20:42.865Z,61.55
2022-10-28T05:21:42.855Z,61.07
2022-10-28T05:22:42.852Z,63.33
2022-10-28T05:23:42.831Z,60.91
2022-10-28T05:24:42.831Z,59.94
2022-10-28T05:25:42.823Z,59.62
2022-10-28T05:26:42.813Z,59.94
2022-10-28T05:27:42.813Z,61.39
2022-10-28T05:28:42.795Z,63.16
2022-10-28T05:29:42.787Z,61.39
2022-10-28T05:30:42.778Z,66.71
2022-10-28T05:31:42.771Z,61.71
2022-10-28T05:32:42.759Z,61.71
2022-10-28T05:35:49.822Z,60.10
2022-10-28T05:36:49.810Z,62.52
2022-10-28T05:37:49.801Z,64.45
2022-10-28T05:38:49.793Z,63.49
2022-10-28T05:39:50.880Z,63.16
2022-10-28T05:40:50.870Z,60.59
2022-10-28T05:41:50.867Z,58.17
2022-10-28T05:42:51.188Z,63.00
2022-10-28T05:43:50.843Z,63.81
2022-10-28T05:44:50.846Z,61.55
2022-10-28T05:45:50.839Z,61.07
2022-10-28T05:46:50.822Z,62.36
2022-10-28T05:47:50.887Z,57.52
2022-10-28T05:48:50.812Z,61.07
2022-10-28T05:49:50.801Z,61.23
2022-10-28T05:50:51.793Z,58.65
2022-10-28T05:51:50.788Z,58.01
2022-10-28T05:52:51.580Z,64.61
2022-10-28T05:53:51.497Z,61.71
2022-10-28T05:54:50.762Z,63.16
2022-10-28T05:55:50.754Z,60.10
2022-10-28T05:56:50.760Z,62.52
2022-10-28T05:57:50.905Z,62.68
2022-10-28T05:58:50.757Z,60.75
2022-10-28T05:59:50.717Z,63.65
2022-10-28T06:00:50.712Z,62.04
2022-10-28T06:01:50.775Z,60.91
2022-10-28T06:02:50.912Z,64.45
2022-10-28T06:03:50.761Z,60.75
2022-10-28T06:04:50.674Z,60.10
2022-10-28T06:05:50.667Z,60.91
2022-10-28T06:06:50.675Z,60.59
2022-10-28T06:07:50.650Z,61.07
2022-10-28T06:08:50.655Z,59.78
2022-10-28T06:09:50.637Z,57.04
2022-10-28T06:10:56.953Z,58.97
2022-10-28T06:11:49.123Z,59.30
2022-10-28T06:12:49.247Z,59.94
2022-10-28T06:13:49.073Z,59.94
2022-10-28T06:14:49.071Z,59.14
2022-10-28T06:15:49.063Z,60.75
2022-10-28T06:16:49.071Z,58.01
2022-10-28T06:17:49.054Z,59.46
2022-10-28T06:18:49.031Z,61.55
2022-10-28T06:19:49.046Z,60.91
2022-10-28T06:20:49.052Z,64.29
2022-10-28T06:21:49.016Z,61.55
2022-10-28T06:22:49.204Z,60.10
2022-10-28T06:23:48.995Z,57.20
2022-10-28T06:24:49.926Z,61.23
2022-10-28T06:25:49.102Z,63.81
2022-10-28T06:26:48.982Z,60.75
2022-10-28T06:27:49.282Z,63.16
2022-10-28T06:28:48.969Z,61.55
2022-10-28T06:29:48.967Z,61.55
2022-10-28T06:30:48.958Z,63.00
2022-10-28T06:31:48.941Z,61.23
2022-10-28T06:32:48.938Z,61.39
2022-10-28T06:33:48.944Z,60.91
2022-10-28T06:34:48.927Z,62.20
2022-10-28T06:35:48.921Z,60.42
2022-10-28T06:36:48.914Z,57.52
2022-10-28T06:37:49.044Z,60.10
2022-10-28T06:38:48.896Z,62.20
2022-10-28T06:39:48.894Z,59.14
2022-10-28T06:40:51.661Z,60.75
2022-10-28T06:41:48.916Z,61.55
2022-10-28T06:42:48.859Z,63.16
2022-10-28T06:43:48.853Z,60.91
2022-10-28T06:44:48.854Z,58.65
2022-10-28T06:45:48.844Z,59.62
2022-10-28T06:46:50.356Z,62.20
2022-10-28T06:47:50.346Z,60.26
2022-10-28T06:48:50.333Z,61.87
2022-10-28T06:49:50.330Z,62.04
2022-10-28T06:50:50.311Z,59.94
2022-10-28T06:51:50.345Z,61.07
2022-10-28T06:52:50.310Z,60.26
2022-10-28T06:53:50.287Z,60.59
2022-10-28T06:54:50.288Z,62.04
2022-10-28T06:55:50.279Z,59.46
2022-10-28T06:56:50.259Z,63.65
2022-10-28T06:57:50.278Z,60.59
2022-10-28T06:58:50.265Z,61.87
2022-10-28T06:59:50.247Z,61.07
2022-10-28T07:00:50.247Z,61.87
2022-10-28T07:01:51.141Z,62.04
2022-10-28T07:02:50.247Z,60.75
2022-10-28T07:03:50.230Z,63.97
2022-10-28T07:04:50.239Z,61.55
2022-10-28T07:05:50.201Z,58.49
2022-10-28T07:06:52.059Z,63.00
2022-10-28T07:07:50.174Z,60.91
2022-10-28T07:08:50.167Z,62.36
2022-10-28T07:09:51.114Z,61.07
2022-10-28T07:10:50.167Z,58.97
2022-10-28T07:11:54.885Z,59.78
2022-10-28T07:12:52.404Z,62.36
2022-10-28T07:13:50.132Z,62.20
2022-10-28T07:14:50.129Z,60.75
2022-10-28T07:15:50.115Z,62.20
2022-10-28T07:16:51.113Z,59.30
2022-10-28T07:17:50.109Z,63.16
2022-10-28T07:18:50.103Z,62.68
2022-10-28T07:19:50.092Z,62.20
2022-10-28T07:20:50.622Z,60.59
2022-10-28T07:21:50.123Z,61.71
2022-10-28T07:22:50.069Z,60.26
2022-10-28T07:23:50.081Z,59.14
2022-10-28T07:24:50.119Z,60.26
2022-10-28T07:25:50.111Z,61.55
2022-10-28T07:26:52.971Z,59.78
2022-10-28T07:27:51.313Z,62.20
2022-10-28T07:28:50.028Z,59.94
2022-10-28T07:29:50.061Z,62.68
2022-10-28T07:30:50.620Z,61.55
2022-10-28T07:31:51.014Z,63.97
2022-10-28T07:32:49.988Z,58.33
2022-10-28T07:33:49.984Z,63.00
2022-10-28T07:34:49.997Z,62.52
2022-10-28T07:35:49.963Z,65.90
2022-10-28T07:36:49.968Z,61.55
2022-10-28T07:37:49.949Z,60.42
2022-10-28T07:38:49.941Z,61.71
2022-10-28T07:39:49.933Z,60.59
2022-10-28T07:40:49.936Z,60.42
2022-10-28T07:41:49.958Z,59.62
2022-10-28T07:42:49.927Z,61.39
2022-10-28T07:43:49.921Z,59.78
2022-10-28T07:44:49.918Z,61.87
2022-10-28T07:45:49.919Z,60.59
2022-10-28T07:46:52.971Z,59.62
2022-10-28T07:47:50.897Z,60.26
2022-10-28T07:48:49.873Z,62.68
2022-10-28T07:49:49.864Z,57.52
2022-10-28T07:50:49.850Z,61.07
2022-10-28T07:51:49.844Z,60.91
2022-10-28T07:52:49.832Z,63.16
2022-10-28T07:53:49.844Z,60.75
2022-10-28T07:54:49.822Z,60.26
2022-10-28T07:55:49.802Z,60.42
2022-10-28T07:56:49.807Z,61.55
2022-10-28T07:57:49.789Z,61.55
2022-10-28T07:58:49.799Z,63.16
2022-10-28T07:59:49.763Z,64.45
2022-10-28T08:00:50.691Z,65.58
2022-10-28T08:01:49.789Z,61.39
2022-10-28T08:02:49.744Z,63.16
2022-10-28T08:03:49.742Z,62.20
2022-10-28T08:04:49.718Z,63.16
2022-10-28T08:05:50.733Z,61.71
2022-10-28T08:06:49.730Z,60.42
2022-10-28T08:07:49.699Z,62.52
2022-10-28T08:08:49.684Z,61.23
2022-10-28T08:09:49.676Z,59.46
2022-10-28T08:10:49.675Z,60.75
2022-10-28T08:11:49.653Z,61.39
2022-10-28T08:12:49.644Z,63.16
2022-10-28T08:13:49.627Z,58.49
2022-10-28T08:14:49.618Z,60.42
2022-10-28T08:15:49.608Z,61.55
2022-10-28T08:16:49.603Z,59.30
2022-10-28T08:17:49.660Z,59.46
2022-10-28T08:18:49.588Z,63.49
2022-10-28T08:19:49.585Z,62.84
2022-10-28T08:20:49.595Z,60.10
2022-10-28T08:21:49.563Z,64.45
2022-10-28T08:22:50.140Z,65.74
2022-10-28T08:23:49.547Z,59.78
2022-10-28T08:24:49.539Z,62.68
2022-10-28T08:25:49.539Z,63.97
2022-10-28T08:26:49.514Z,60.26
2022-10-28T08:27:50.038Z,62.04
2022-10-28T08:28:49.504Z,62.68
2022-10-28T08:29:49.519Z,60.91
2022-10-28T08:31:04.140Z,64.13
2022-10-28T08:31:51.471Z,60.91
2022-10-28T08:32:50.458Z,64.78
2022-10-28T08:33:49.453Z,61.23
2022-10-28T08:34:50.107Z,61.23
2022-10-28T08:35:49.429Z,61.71
2022-10-28T08:36:50.087Z,60.42
2022-10-28T08:37:49.417Z,61.39
2022-10-28T08:38:49.422Z,63.16
2022-10-28T08:39:49.475Z,61.87
2022-10-28T08:40:49.393Z,61.39
2022-10-28T08:41:49.393Z,62.04
2022-10-28T08:42:49.394Z,60.59
2022-10-28T08:43:57.080Z,63.49
2022-10-28T08:44:51.384Z,59.62
2022-10-28T08:45:49.359Z,60.75
2022-10-28T08:46:49.355Z,60.75
2022-10-28T08:47:49.398Z,61.55
2022-10-28T08:48:49.357Z,59.46
2022-10-28T08:49:49.543Z,60.75
2022-10-28T08:50:50.044Z,59.94
2022-10-28T08:51:49.320Z,60.59
2022-10-28T08:52:49.343Z,63.65
2022-10-28T08:53:49.303Z,61.07
2022-10-28T08:54:49.341Z,62.20
2022-10-28T08:55:49.297Z,61.71
2022-10-28T08:56:49.272Z,60.75
2022-10-28T08:57:49.269Z,61.39
2022-10-28T08:58:49.253Z,63.65
2022-10-28T08:59:49.249Z,62.04
2022-10-28T09:00:49.256Z,61.87
2022-10-28T09:01:49.389Z,59.94
2022-10-28T09:02:49.228Z,59.78
2022-10-28T09:03:49.295Z,63.97
2022-10-28T09:04:49.263Z,63.16
2022-10-28T09:05:49.213Z,61.07
2022-10-28T09:06:49.202Z,60.10
2022-10-28T09:07:49.184Z,60.10
2022-10-28T09:08:49.183Z,60.42
2022-10-28T09:09:49.160Z,60.42
2022-10-28T09:10:49.161Z,58.33
2022-10-28T09:11:49.146Z,56.72
2022-10-28T09:12:49.157Z,58.81
2022-10-28T09:13:49.201Z,62.20
2022-10-28T09:14:49.124Z,60.10
2022-10-28T09:15:49.134Z,59.62
2022-10-28T09:16:49.121Z,58.33
2022-10-28T09:17:49.112Z,59.94
2022-10-28T09:18:49.101Z,62.20
2022-10-28T09:19:49.089Z,58.81
2022-10-28T09:20:49.095Z,59.14
2022-10-28T09:21:49.164Z,62.04
2022-10-28T09:22:49.063Z,63.49
2022-10-28T09:23:49.063Z,61.07
2022-10-28T09:24:49.044Z,59.94
2022-10-28T09:25:49.032Z,61.87
2022-10-28T09:26:49.027Z,60.59
2022-10-28T09:27:49.638Z,62.52
2022-10-28T09:28:49.009Z,62.84
2022-10-28T09:29:49.002Z,61.55
2022-10-28T09:30:48.995Z,63.97
2022-10-28T09:31:48.991Z,60.26
2022-10-28T09:32:48.987Z,61.39
2022-10-28T09:33:48.981Z,59.62
2022-10-28T09:34:48.974Z,59.78
2022-10-28T09:35:48.952Z,64.13
2022-10-28T09:36:48.939Z,61.39
2022-10-28T09:37:48.938Z,61.07
2022-10-28T09:38:48.937Z,54.79
2022-10-28T09:39:48.958Z,61.23
2022-10-28T09:40:48.912Z,60.75
2022-10-28T09:41:48.899Z,61.55
2022-10-28T09:42:48.899Z,62.52
2022-10-28T09:43:48.893Z,60.75
2022-10-28T09:44:48.900Z,59.78
2022-10-28T09:45:48.876Z,59.78
2022-10-28T09:46:48.861Z,60.26
2022-10-28T09:47:48.851Z,61.39
2022-10-28T09:48:48.858Z,62.04
2022-10-28T09:49:48.845Z,60.10
2022-10-28T09:50:48.857Z,61.55
2022-10-28T09:51:48.826Z,61.39
2022-10-28T09:52:48.838Z,60.75
2022-10-28T09:53:50.580Z,64.13
2022-10-28T09:54:49.647Z,61.23
2022-10-28T09:55:48.809Z,61.71
2022-10-28T09:56:48.806Z,61.87
2022-10-28T09:57:48.788Z,62.36
2022-10-28T09:58:48.771Z,62.20
2022-10-28T09:59:48.764Z,60.59
2022-10-28T10:00:49.672Z,60.59
2022-10-28T10:01:48.838Z,61.87
2022-10-28T10:02:48.843Z,60.26
2022-10-28T10:03:49.642Z,63.65
2022-10-28T10:04:48.730Z,62.20
2022-10-28T10:05:49.570Z,59.46
2022-10-28T10:06:48.717Z,60.75
2022-10-28T10:07:48.718Z,60.10
2022-10-28T10:08:50.582Z,61.23
2022-10-28T10:09:48.769Z,64.13
2022-10-28T10:10:48.685Z,62.20
2022-10-28T10:11:48.677Z,60.75
2022-10-28T10:12:51.451Z,60.10
2022-10-28T10:13:50.650Z,60.26
2022-10-28T10:14:49.148Z,60.59
2022-10-28T10:15:48.646Z,59.30
2022-10-28T10:16:48.636Z,58.81
2022-10-28T10:17:48.629Z,59.78
2022-10-28T10:18:48.622Z,61.71
2022-10-28T10:19:50.569Z,61.71
2022-10-28T10:20:49.621Z,60.75
2022-10-28T10:21:48.593Z,61.23
2022-10-28T10:22:48.593Z,60.42
2022-10-28T10:23:48.586Z,63.16
2022-10-28T10:24:48.564Z,58.65
2022-10-28T10:25:49.162Z,60.75
2022-10-28T10:26:49.244Z,60.42
2022-10-28T10:27:48.608Z,60.75
2022-10-28T10:28:48.545Z,61.23
2022-10-28T10:29:48.553Z,59.62
2022-10-28T10:30:48.512Z,62.84
2022-10-28T10:31:48.557Z,62.68
2022-10-28T10:32:48.579Z,59.78
2022-10-28T10:33:48.516Z,59.30
2022-10-28T10:34:48.509Z,60.75
2022-10-28T10:35:48.480Z,59.94
2022-10-28T10:36:48.517Z,60.91
2022-10-28T10:37:48.501Z,61.23
2022-10-28T10:38:48.490Z,58.97
2022-10-28T10:39:48.730Z,62.20
2022-10-28T10:40:48.440Z,60.59
2022-10-28T10:41:48.438Z,60.26
2022-10-28T10:43:09.709Z,61.07
2022-10-28T10:43:50.468Z,60.75
2022-10-28T10:44:48.407Z,59.46
2022-10-28T10:45:48.398Z,59.62
2022-10-28T10:46:48.430Z,59.78
2022-10-28T10:47:49.229Z,60.26
2022-10-28T10:48:48.370Z,60.10
2022-10-28T10:49:48.375Z,57.85
2022-10-28T10:50:48.366Z,62.20
2022-10-28T10:51:48.387Z,60.42
2022-10-28T10:52:48.358Z,59.78
2022-10-28T10:53:48.372Z,58.81
2022-10-28T10:54:48.384Z,61.87
2022-10-28T10:55:48.387Z,61.07
2022-10-28T10:56:48.352Z,58.65
2022-10-28T10:57:48.326Z,62.36
2022-10-28T10:58:48.316Z,61.55
2022-10-28T10:59:48.284Z,61.87
2022-10-28T11:00:48.325Z,64.61
2022-10-28T11:01:48.370Z,59.46
2022-10-28T11:02:50.919Z,60.75
2022-10-28T11:03:50.287Z,61.71
2022-10-28T11:04:49.114Z,60.91
2022-10-28T11:05:55.108Z,60.75
2022-10-28T11:06:49.246Z,60.75
2022-10-28T11:07:48.254Z,60.75
2022-10-28T11:08:48.242Z,58.65
2022-10-28T11:09:48.224Z,57.52
2022-10-28T11:10:49.194Z,59.30
2022-10-28T11:11:48.187Z,58.33
2022-10-28T11:12:49.524Z,60.59
2022-10-28T11:13:48.258Z,59.30
2022-10-28T11:14:48.679Z,60.59
2022-10-28T11:15:48.164Z,60.26
2022-10-28T11:16:48.169Z,60.26
2022-10-28T11:17:48.195Z,63.65
2022-10-28T11:18:48.151Z,62.68
2022-10-28T11:19:48.138Z,59.78
2022-10-28T11:20:48.117Z,58.97
2022-10-28T11:21:48.114Z,61.23
2022-10-28T11:22:48.107Z,65.10
2022-10-28T11:23:48.108Z,60.91
2022-10-28T11:24:48.096Z,60.59
2022-10-28T11:25:48.092Z,62.04
2022-10-28T11:26:48.077Z,60.26
2022-10-28T11:27:51.734Z,60.42
2022-10-28T11:28:49.071Z,60.10
2022-10-28T11:29:48.050Z,59.94
2022-10-28T11:30:48.067Z,62.36
2022-10-28T11:31:48.106Z,60.91
2022-10-28T11:33:01.412Z,61.71
2022-10-28T11:33:50.026Z,59.94
2022-10-28T11:34:48.042Z,58.49
2022-10-28T11:35:48.027Z,58.01
2022-10-28T11:36:48.225Z,60.42
2022-10-28T11:37:47.994Z,61.71
2022-10-28T11:38:48.022Z,58.65
2022-10-28T11:39:47.979Z,60.26
2022-10-28T11:40:47.964Z,60.26
2022-10-28T11:41:47.990Z,60.26
2022-10-28T11:42:47.974Z,59.78
2022-10-28T11:43:52.159Z,58.33
2022-10-28T11:44:48.960Z,59.14
2022-10-28T11:45:51.202Z,58.17
2022-10-28T11:46:48.613Z,60.75
2022-10-28T11:47:47.925Z,59.46
2022-10-28T11:48:48.705Z,58.81
2022-10-28T11:49:48.712Z,59.62
2022-10-28T11:50:47.950Z,60.26
2022-10-28T11:51:47.902Z,61.39
2022-10-28T11:52:47.961Z,58.01
2022-10-28T11:53:47.909Z,60.26
2022-10-28T11:54:47.857Z,60.75
2022-10-28T11:55:47.848Z,60.75
2022-10-28T11:56:47.835Z,61.71
2022-10-28T11:57:48.614Z,61.71
2022-10-28T11:58:47.833Z,63.00
2022-10-28T11:59:47.862Z,60.10
2022-10-28T12:00:48.812Z,60.26
2022-10-28T12:01:47.991Z,59.46
2022-10-28T12:02:50.712Z,61.87
2022-10-28T12:03:48.839Z,60.91
2022-10-28T12:04:47.786Z,59.94
2022-10-28T12:05:47.761Z,59.94
2022-10-28T12:06:47.787Z,59.14
2022-10-28T12:07:47.769Z,58.17
2022-10-28T12:08:47.770Z,59.30
2022-10-28T12:09:47.756Z,60.75
2022-10-28T12:10:47.757Z,60.91
2022-10-28T12:11:47.748Z,58.81
2022-10-28T12:12:51.223Z,58.17
2022-10-28T12:13:47.753Z,58.65
2022-10-28T12:14:47.696Z,58.65
2022-10-28T12:15:49.193Z,60.91
2022-10-28T12:16:49.205Z,60.91
2022-10-28T12:17:47.691Z,60.26
2022-10-28T12:18:47.715Z,60.10
2022-10-28T12:19:47.657Z,62.52
2022-10-28T12:20:47.686Z,63.16
2022-10-28T12:21:47.665Z,63.00
2022-10-28T12:22:47.637Z,61.55
2022-10-28T12:23:47.688Z,56.72
2022-10-28T12:24:47.682Z,60.10
2022-10-28T12:25:47.609Z,61.39
2022-10-28T12:26:47.609Z,56.07
2022-10-28T12:27:47.586Z,62.52
2022-10-28T12:28:47.593Z,63.49
2022-10-28T12:29:47.634Z,63.81
2022-10-28T12:30:47.579Z,65.10
2022-10-28T12:31:47.558Z,60.26
2022-10-28T12:32:47.616Z,57.20
2022-10-28T12:33:47.572Z,61.55
2022-10-28T12:34:47.535Z,59.78
2022-10-28T12:35:47.529Z,59.78
2022-10-28T12:36:47.519Z,61.23
2022-10-28T12:37:48.731Z,60.26
2022-10-28T12:38:48.593Z,62.68
2022-10-28T12:39:48.244Z,61.23
2022-10-28T12:40:47.560Z,57.69
2022-10-28T12:41:48.154Z,59.46
2022-10-28T12:42:49.300Z,60.26
2022-10-28T12:43:47.532Z,61.39
2022-10-28T12:44:50.027Z,60.91
2022-10-28T12:45:48.451Z,60.75
2022-10-28T12:47:47.484Z,59.94
2022-10-28T12:48:47.442Z,60.26
2022-10-28T12:49:47.432Z,59.78
2022-10-28T12:50:47.417Z,58.49
2022-10-28T12:51:47.427Z,61.55
2022-10-28T12:52:47.404Z,59.94
2022-10-28T12:53:47.394Z,62.20
2022-10-28T12:54:52.598Z,61.71
2022-10-28T12:55:49.424Z,60.75
2022-10-28T12:56:47.385Z,59.62
2022-10-28T12:57:47.365Z,61.87
2022-10-28T12:58:47.362Z,60.91